Weather observations for the past three days for
Madison, Madison-Lac Qui Parle County Airport
Imperial (Metric)
Date Time (cdt) Wind (mph) Vis. (mi.) Weather Sky Cond. Temperature (ºF) Relative Humidity Wind Chill (°F) Heat Index (°F) Pressure Precipitation (in)
Air Dwpt 6 hour altimeter (in) sea level (mb) 1 hr 3 hr 6 hr
Max. Min.
03 13:35 S 9 10.00 Fair CLR 89.4 75.7 64% 101 29.7 0.0
03 13:15 SE 7 10.00 A Few Clouds FEW160 88.7 78.3 71% 103 29.71 0.0
03 12:55 SE 8 10.00 Mostly Cloudy BKN170 84.6 79.7 84.9 66.2 85% 98 29.72 0.0
03 12:35 SE 8 10.00 Partly Cloudy SCT170 84.4 79.3 85% 97 29.73 0.0
03 12:15 S 6 10.00 Fair CLR 82.8 79.2 89% 94 29.75 0.0
03 11:55 S 7 10.00 Fair CLR 82.9 79.3 89% 94 29.75 0.0
03 11:35 S 12 10.00 Fair CLR 83.8 79.3 86% 96 29.75 0.0
03 11:15 S 9 10.00 Fair CLR 83.3 78.8 86% 94 29.74 0.0
03 10:55 S 9 10.00 Fair CLR 81.9 78.4 89% 91 29.73 0.0
03 10:35 SE 9 10.00 A Few Clouds FEW150 81.7 78.1 89% 90 29.74 0.0
03 10:15 S 8 10.00 Mostly Cloudy BKN160 81 78.4 92% 89 29.74 0.0
03 09:55 SE 10 10.00 Mostly Cloudy BKN160 78.3 78.3 100% 81 29.75 0.0
03 09:35 S 14 10.00 Partly Cloudy SCT170 77.2 77.2 100% 78 29.75 0.0
03 09:15 SE 9 10.00 Fair CLR 75 75 100% 72 29.74 0.0
03 08:55 SE 8 10.00 Fair CLR 73.4 73.4 100% 29.75 0.0
03 08:35 SE 7 10.00 Fair CLR 72.3 72.3 100% 29.75 0.0
03 08:15 E 3 9.00 Mostly Cloudy BKN001 70.2 70.2 100% 29.75 0.0
03 07:55 E 6 8.00 Overcast OVC001 68.2 68.2 100% 29.76 0.0
03 07:35 E 6 8.00 Overcast OVC002 67.6 67.6 100% 29.76 0.0
03 07:15 NE 6 8.00 Overcast OVC003 67.1 67.1 100% 29.76 0.0
03 06:55 NE 6 8.00 Overcast BKN004 OVC170 65.7 65.7 67.8 65.3 100% 29.76 0.0
03 06:35 E 5 10.00 Mostly Cloudy FEW004 BKN170 65.5 65.5 100% 29.76 0.0
03 06:15 E 6 9.00 A Few Clouds FEW005 65.7 65.7 100% 29.75 0.0
03 05:55 NE 3 10.00 Fair CLR 66.6 66.6 100% 29.76 0.0
03 05:35 E 5 10.00 Fair CLR 66.7 66.7 100% 29.77 0.0
03 05:15 NE 5 10.00 Fair CLR 67.1 67.1 100% 29.76 0.0
03 04:55 NE 6 10.00 Fair CLR 66.7 66.7 100% 29.76 0.0
03 04:35 NE 3 10.00 Fair CLR 67.3 67.3 100% 29.77 0.0
03 04:15 NE 5 10.00 Fair CLR 67.3 67.3 100% 29.77 0.0
03 03:55 E 5 10.00 Fair CLR 67.5 67.5 100% 29.78 0.0
03 03:35 E 5 10.00 Fair CLR 67.3 67.3 100% 29.78 0.0
03 03:15 E 6 10.00 Fair CLR 66.9 66.9 100% 29.78 0.0
03 02:55 NE 5 10.00 Fair CLR 66.6 66.6 100% 29.79 0.0
03 02:35 E 5 10.00 Fair CLR 66.9 66.9 100% 29.79 0.0
03 02:15 E 6 10.00 Fair CLR 66.6 66.6 100% 29.79 0.0
03 01:55 NE 6 10.00 Fair CLR 66.9 66.9 100% 29.8 0.0
03 01:35 NE 5 9.00 Fair CLR 66.7 66.7 100% 29.8 0.0
03 01:15 SE 5 10.00 Fair CLR 67.5 67.5 100% 29.81 0.0
03 00:55 SE 6 10.00 A Few Clouds FEW160 68.4 68.4 81.3 68 100% 29.81 0.0
03 00:35 SE 5 10.00 Partly Cloudy SCT170 68 68 100% 29.81 0.0
03 00:15 E 6 10.00 A Few Clouds FEW170 68.7 68.7 100% 29.81 0.0
02 23:55 E 7 10.00 Fair CLR 69.8 69.8 100% 29.81 0.0
02 23:35 NE 6 10.00 Fair CLR 70.3 70.2 99% 29.82 0.0
02 23:15 NE 7 10.00 Fair CLR 71.2 71.2 100% 29.82 0.0
02 22:55 NE 8 10.00 Fair CLR 72 72 100% 29.82 0.0
02 22:35 NE 7 10.00 Fair CLR 71.8 71.8 100% 29.82 0.0
02 22:15 NE 6 10.00 A Few Clouds FEW140 71.6 71.6 100% 29.83 0.0
02 21:55 E 6 10.00 Fair CLR 72.1 72.1 100% 29.83 0.0
02 21:35 E 6 10.00 A Few Clouds FEW150 72.5 72.5 100% 29.83 0.0
02 21:15 E 7 10.00 Mostly Cloudy BKN140 74.1 74.1 100% 29.83 0.0
02 20:55 E 7 10.00 Mostly Cloudy BKN140 74.8 74.8 100% 29.82 0.0
02 20:35 E 6 10.00 Partly Cloudy SCT140 75 75 100% 72 29.82 0.0
02 20:15 E 7 10.00 Partly Cloudy SCT130 76.5 76.5 100% 76 29.81 0.0
02 19:55 E 8 10.00 Mostly Cloudy BKN140 78.1 78.1 100% 81 29.81 0.0
02 19:35 E 8 10.00 Partly Cloudy SCT130 79.2 77.7 95% 84 29.81 0.0
02 19:15 E 8 10.00 A Few Clouds FEW140 80.6 75.2 84% 86 29.81 0.0
02 18:55 E 9 10.00 Fair CLR 82.6 73.2 86.9 82.6 73% 88 29.81 0.0
02 18:35 E 9 10.00 Fair CLR 83.3 72.5 70% 89 29.81 0.0
02 18:15 E 12 10.00 A Few Clouds FEW047 84.2 71.8 66% 90 29.81 0.0
02 17:55 E 10 10.00 Fair CLR 85.3 71.6 64% 91 29.81 0.0
02 17:35 E 9 10.00 Fair CLR 85.6 70.7 61% 91 29.81 0.0
02 17:15 E 10 10.00 Fair CLR 86.2 70.9 60% 92 29.81 0.0
02 16:55 E 10 10.00 Fair CLR 86.5 70.5 59% 92 29.82 0.0
02 16:35 E 12 10.00 Fair CLR 86.4 69.1 56% 91 29.82 0.0
02 16:15 E 14 10.00 Fair CLR 86.4 69.4 57% 91 29.82 0.0
02 15:55 E 10 10.00 Fair CLR 86.2 69.1 57% 90 29.84 0.0
02 15:35 E 12 10.00 Fair CLR 86.2 68.7 56% 90 29.84 0.0
02 15:15 E 9 10.00 Fair CLR 86.2 68.5 56% 90 29.84 0.0
02 14:55 E 9 10.00 Fair CLR 85.6 67.8 55% 89 29.85 0.0
02 14:35 E 10 10.00 Fair CLR 86.4 67.3 53% 89 29.85 0.0
02 14:15 E 10 10.00 Fair CLR 85.8 67.1 54% 89 29.86 0.0
02 13:55 E 9 10.00 Fair CLR 84.7 66.9 55% 87 29.86 0.0
02 13:35 E 10 10.00 Fair CLR 84.6 66 54% 87 29.87 0.0
02 13:15 E 10 10.00 Fair CLR 84.2 65.3 53% 86 29.88 0.0
02 12:55 E 13 G 17 10.00 Fair CLR 83.7 64.9 83.7 61.9 53% 85 29.88 0.0
02 12:35 E 10 10.00 Fair CLR 82.8 65.8 57% 85 29.89 0.0
02 12:15 E 8 10.00 Fair CLR 81.3 65.1 58% 83 29.89 0.0
02 11:55 NE 8 10.00 Fair CLR 80.6 65.8 61% 83 29.89 0.0
02 11:35 E 7 10.00 Fair CLR 79.3 66.2 64% 81 29.89 0.0
02 11:15 NE 8 10.00 Fair CLR 78.3 73.8 86% 81 29.89 0.0
02 10:55 E 8 10.00 Fair CLR 77.2 74.1 90% 79 29.88 0.0
02 10:35 E 5 10.00 Fair CLR 75 73.8 96% 73 29.9 0.0
02 10:15 E 6 10.00 Fair CLR 73.8 73.8 100% 29.9 0.0
02 09:55 E 3 10.00 A Few Clouds FEW170 73.4 73.4 100% 29.91 0.0
02 09:35 E 7 10.00 Partly Cloudy SCT170 72 72 100% 29.91 0.0
02 09:15 E 8 10.00 Partly Cloudy SCT170 70.5 70.5 100% 29.9 0.0
02 08:55 Calm 10.00 Mostly Cloudy BKN160 68.2 68.2 100% 29.91 0.0
02 08:35 E 5 10.00 Mostly Cloudy FEW110 BKN170 66.7 66.7 100% 29.91 0.0
02 08:15 Calm 10.00 Mostly Cloudy SCT110 BKN140 BKN160 64.2 64.2 100% 29.92 0.0
02 07:55 N 6 10.00 Mostly Cloudy FEW160 BKN260 63.3 63.3 100% 29.91 0.0
02 07:35 NE 5 9.00 Partly Cloudy SCT160 SCT270 63.1 63.1 100% 29.91 0.0
02 07:15 NE 7 10.00 Partly Cloudy SCT170 62.1 62.1 100% 29.9 0.0
02 06:55 N 8 10.00 Fair CLR 61.7 61.7 65.7 59.2 100% 29.9 0.0
02 06:35 N 6 10.00 Fair CLR 61.3 61.3 100% 29.9 0.0
02 06:15 N 6 10.00 Fair CLR 62.4 62.4 100% 29.9 0.0
02 05:55 N 7 10.00 Fair CLR 59.7 59.7 100% 29.9 0.0
02 05:35 N 5 9.00 Fair CLR 59.2 59.2 100% 29.9 0.0
02 05:15 NW 3 9.00 Partly Cloudy SCT090 61 61 100% 29.9 0.0
02 04:55 SW 3 10.00 Mostly Cloudy SCT090 BKN110 61.3 61.3 100% 29.91 0.0
02 04:35 N 3 10.00 A Few Clouds FEW110 62.4 62.4 100% 29.91 0.0
02 04:15 N 7 10.00 A Few Clouds FEW170 62.6 62.6 100% 29.91 0.0
02 03:55 NW 6 10.00 Mostly Cloudy SCT110 BKN170 63 63 100% 29.91 0.0
02 03:35 NW 6 10.00 Overcast BKN110 OVC140 63.7 63.7 100% 29.92 0.0
02 03:15 Calm 10.00 Overcast FEW055 OVC120 64 64 100% 29.91 0.0
02 02:55 N 5 10.00 Overcast OVC055 64 64 100% 29.91 0.0
02 02:35 W 5 10.00 Mostly Cloudy BKN050 63.9 63.9 100% 29.92 0.0
02 02:15 Calm 10.00 Partly Cloudy SCT050 63.3 63.3 100% 29.9 0.0
02 01:55 SE 5 10.00 Partly Cloudy SCT047 64.9 64.9 100% 29.88 0.0
02 01:35 Calm 10.00 Partly Cloudy FEW048 SCT150 63.9 63.9 100% 29.89 0.0
02 01:15 Calm 10.00 Partly Cloudy FEW049 SCT120 64.6 64.6 100% 29.9 0.0
02 00:55 SE 3 10.00 A Few Clouds FEW120 65.3 65.3 74.1 65.3 100% 29.9 0.0 0.03
02 00:35 NE 8 10.00 Fair CLR 66.6 66.6 100% 29.89 0.0
02 00:15 E 6 10.00 Fair CLR 66.7 66.7 100% 29.89 0.0
01 23:55 NE 6 10.00 A Few Clouds FEW120 67.3 67.3 100% 29.91 0.0
01 23:35 NE 7 9.00 Mostly Cloudy BKN120 66.6 66.6 100% 29.91 0.0
01 23:15 NE 3 10.00 Overcast OVC120 67.5 67.5 100% 29.92 0.0
01 22:55 N 6 10.00 Overcast FEW090 OVC110 68.4 68.4 100% 29.91 0.0 0.02
01 22:35 E 5 7.00 Light Rain SCT075 OVC110 67.8 67.8 100% 29.92 0.0 0.02
01 22:15 Calm 7.00 Light Rain SCT075 OVC100 68.4 68.4 100% 29.93 0.0 0.02
01 21:55 SW 5 9.00 Overcast BKN100 OVC120 68.4 68.4 100% 29.95 0.0 0.01
01 21:35 N 6 9.00 Overcast BKN120 OVC140 68.9 68.9 100% 29.92 0.0
01 21:15 Calm 9.00 Mostly Cloudy BKN130 69.1 69.1 100% 29.92 0.0
01 20:55 Calm 8.00 Light Rain BKN120 68.9 68.9 100% 29.91 0.0 0.01
01 20:35 Calm 4.00 Light Rain Fog/Mist FEW095 OVC120 69.8 69.8 100% 29.92 0.0 0.01
01 20:15 Calm 7.00 Light Rain FEW095 BKN130 69.8 69.8 100% 29.92 0.0 0.01
01 19:55 N 3 5.00 Light Rain Fog/Mist FEW065 SCT095 BKN130 71.1 71.1 100% 29.91 0.0
01 19:35 SE 3 5.00 Light Rain Fog/Mist FEW060 SCT095 SCT120 72 72 100% 29.91 0.0
01 19:15 Calm 7.00 Light Rain SCT120 73.6 73.6 100% 29.92 0.0
01 18:55 Calm 7.00 Mostly Cloudy FEW110 BKN130 BKN160 75 75 80.6 74.7 100% 72 29.93 0.0
01 18:35 NE 3 8.00 Partly Cloudy FEW110 SCT140 74.7 74.7 100% 29.92 0.0
01 18:15 Calm 7.00 Partly Cloudy FEW130 SCT160 SCT180 75.7 74.1 95% 75 29.93 0.0
01 17:55 NE 5 8.00 Overcast FEW070 OVC120 76.6 69.4 79% 78 29.93 0.0
01 17:35 Calm 8.00 Mostly Cloudy SCT070 BKN120 78.3 64.4 63% 80 29.95 0.0
01 17:15 Calm 8.00 Mostly Cloudy BKN130 78.3 64 62% 80 29.95 0.0
01 16:55 Calm 9.00 Overcast FEW070 OVC140 79.3 61.9 55% 81 29.95 0.0
01 16:35 NE 3 7.00 Mostly Cloudy SCT070 BKN140 79.2 63.1 58% 81 29.95 0.0
01 16:15 NE 3 8.00 Mostly Cloudy BKN070 BKN150 79 61.7 56% 80 29.95 0.0
01 15:55 NE 3 9.00 Overcast BKN065 OVC160 79.5 61.7 55% 81 29.96 0.0
01 15:35 Calm 9.00 Mostly Cloudy SCT065 SCT120 BKN160 79.3 62.1 56% 81 29.96 0.0
01 15:15 E 5 9.00 Partly Cloudy FEW090 SCT120 78.8 64.4 61% 81 29.94 0.0
01 14:55 E 6 10.00 A Few Clouds FEW180 79.2 61.2 54% 80 29.95 0.0
01 14:35 E 5 10.00 A Few Clouds FEW180 80.2 62.4 55% 82 29.96 0.0
01 14:15 E 6 10.00 A Few Clouds FEW150 79.3 62.2 56% 81 29.96 0.0
01 13:55 E 5 10.00 Mostly Cloudy SCT160 BKN180 78.4 62.1 57% 80 29.95 0.0
01 13:35 E 7 10.00 Mostly Cloudy BKN180 BKN200 79.3 62.2 56% 81 29.96 0.0
01 13:15 NE 6 10.00 Overcast BKN200 OVC220 79.5 63.7 59% 81 29.95 0.0
01 12:55 Calm 10.00 Mostly Cloudy BKN230 78.4 61.5 80.4 52.7 56% 80 29.96 0.0
01 12:35 N 5 10.00 Mostly Cloudy BKN230 79.7 61 53% 81 29.96 0.0
01 12:15 Calm 10.00 Partly Cloudy SCT230 SCT250 78.1 61.5 57% 80 29.97 0.0
01 11:55 Calm 10.00 A Few Clouds FEW340 76.3 61.2 60% 78 29.98 0.0
01 11:35 Calm 10.00 Partly Cloudy FEW250 SCT350 75.4 61.2 61% 78 29.98 0.0
01 11:15 Calm 10.00 Fair CLR 75.4 61.5 62% 77 29.98 0.0
01 10:55 Calm 10.00 Fair CLR 72.9 63.1 72% 29.98 0.0
01 10:35 NW 3 10.00 Fair CLR 70.9 68.2 91% 29.98 0.0
01 10:15 Calm 9.00 Fair CLR 69.8 66.9 91% 29.98 0.0
01 09:55 N 3 9.00 A Few Clouds FEW270 68.4 68.4 100% 29.99 0.0
01 09:35 NW 3 9.00 A Few Clouds FEW280 66.9 66.9 100% 29.99 0.0
01 09:15 W 3 9.00 Fair CLR 66.2 66.2 100% 29.99 0.0
01 08:55 Calm 7.00 Fair CLR 65.5 65.5 100% 29.99 0.0
01 08:35 Calm 7.00 Fair CLR 63.9 63.9 100% 29.98 0.0
01 08:15 Calm 8.00 Fair CLR 61.9 61.9 100% 29.98 0.0
01 07:55 Calm 8.00 Fair CLR 56.1 56.1 100% 29.98 0.0
01 07:35 Calm 9.00 Fair CLR 53.2 53.2 100% 29.98 0.0
01 07:15 S 3 10.00 Fair CLR 53.4 53.4 100% 29.97 0.0
01 06:55 Calm 9.00 Fair CLR 54.5 54.5 63.1 53.4 100% 29.95 0.0
01 06:35 S 3 9.00 Fair CLR 53.4 53.4 100% 29.95 0.0
01 06:15 W 6 10.00 Fair CLR 59.7 59.7 100% 29.94 0.0
01 05:55 NW 7 10.00 Fair CLR 55.6 55.6 100% 29.94 0.0
01 05:35 W 7 10.00 Fair CLR 55.9 55.9 100% 29.94 0.0
01 05:15 Calm 10.00 Fair CLR 56.5 56.5 100% 29.94 0.0
01 04:55 W 7 10.00 Fair CLR 59.9 59.9 100% 29.93 0.0
01 04:35 NW 8 10.00 Fair CLR 59.5 59.5 100% 29.93 0.0
01 04:15 NW 3 10.00 Fair CLR 56.1 56.1 100% 29.93 0.0
01 03:55 W 5 10.00 Fair CLR 57 57 100% 29.92 0.0
01 03:35 SW 3 10.00 Fair CLR 57.9 57.9 100% 29.93 0.0
01 03:15 SW 3 10.00 Fair CLR 57.7 57.7 100% 29.92 0.0
01 02:55 Calm 10.00 Fair CLR 59.4 59.4 100% 29.93 0.0
01 02:35 W 6 10.00 Fair CLR 59.4 59.4 100% 29.93 0.0
01 02:15 SW 5 10.00 Fair CLR 62.8 62.8 100% 29.92 0.0
01 01:55 SW 3 10.00 Fair CLR 61.7 61.7 100% 29.93 0.0
01 01:35 SW 3 10.00 Fair CLR 62.1 62.1 100% 29.93 0.0
01 01:15 SW 7 10.00 Fair CLR 61.3 61.3 100% 29.94 0.0
01 00:55 SW 5 10.00 Fair CLR 61.5 61.5 80.1 61.2 100% 29.95 0.0
01 00:35 SW 7 10.00 Fair CLR 62.1 62.1 100% 29.95 0.0
01 00:15 W 7 10.00 Fair CLR 61.3 61.3 100% 29.94 0.0
31 23:55 W 7 10.00 Fair CLR 63.5 63.5 100% 29.94 0.0
31 23:35 W 5 10.00 Fair CLR 64.4 64.4 100% 29.94 0.0
31 23:15 Calm 10.00 Fair CLR 65.3 65.3 100% 29.93 0.0
31 22:55 W 3 10.00 Fair CLR 66 66 100% 29.93 0.0
31 22:35 W 3 10.00 Fair CLR 65.7 65.7 100% 29.93 0.0
31 22:15 SW 3 10.00 Fair CLR 66.4 66.4 100% 29.92 0.0
31 21:55 SW 6 10.00 Fair CLR 67.5 67.5 100% 29.92 0.0
31 21:35 SW 5 10.00 Fair CLR 68.2 68.2 100% 29.92 0.0
31 21:15 S 6 10.00 Fair CLR 68.9 68.9 100% 29.91 0.0
31 20:55 S 5 10.00 Fair CLR 71.8 71.8 100% 29.9 0.0
31 20:35 S 6 10.00 Fair CLR 71.8 71.4 99% 29.9 0.0
31 20:15 S 5 9.00 Light Rain CLR 73.9 68.4 83% 29.89 0.0
31 19:55 S 3 10.00 Fair CLR 75.4 69.3 81% 76 29.89 0.0
31 19:35 S 3 9.00 Fair CLR 76.8 67.8 74% 78 29.89 0.0
31 19:15 S 5 9.00 Fair CLR 78.1 68 71% 80 29.89 0.0
31 18:55 S 6 9.00 Fair CLR 81.5 64.9 86.9 79.5 57% 83 29.89 0.0
31 18:35 SE 6 10.00 Fair CLR 83.3 62.8 50% 84 29.89 0.0
31 18:15 SE 5 9.00 Fair CLR 84.9 61 45% 85 29.9 0.0
31 17:55 SE 5 10.00 Fair CLR 86 60.3 42% 86 29.9 0.0
31 17:35 Calm 9.00 Fair CLR 85.3 59.2 41% 85 29.9 0.0
31 17:15 SE 6 10.00 Fair CLR 86 58.8 40% 85 29.9 0.0
31 16:55 SE 3 10.00 Fair CLR 85.6 59 41% 85 29.9 0.0
31 16:35 Calm 10.00 Fair CLR 84.7 57.4 39% 84 29.89 0.0
31 16:15 Calm 10.00 Fair CLR 86.2 57.4 38% 85 29.9 0.0
31 15:55 Calm 10.00 Fair CLR 84.9 56.1 37% 84 29.9 0.0
31 15:35 SW 3 10.00 Fair CLR 84 55.8 38% 83 29.9 0.0
31 15:15 Calm 10.00 Fair CLR 83.5 54.1 37% 82 29.91 0.0
31 14:55 W 5 10.00 Fair CLR 83.1 51.3 33% 82 29.91 0.0
31 14:35 NW 7 10.00 Fair CLR 82.9 57.2 42% 82 29.91 0.0
31 14:15 NW 10 10.00 Fair CLR 82.2 53.1 37% 81 29.91 0.0
31 13:55 NW 8 10.00 Fair CLR 82 57.6 43% 82 29.91 0.0
Date Time (cdt) Wind (mph) Vis. (mi.) Weather Sky Cond. Air Dwpt Max. Min. Relative Humidity Wind Chill (°F) Heat Index (°F) altimeter (in) sea level (mb) 1 hr 3 hr 6 hr
6 hour
Temperature (ºF) Pressure Precipitation (in)